createdAt,value
2023-02-11T00:00:04.780Z,65.87
2023-02-11T00:00:41.028Z,64.20
2023-02-11T00:01:25.405Z,65.37
2023-02-11T00:01:57.240Z,72.93
2023-02-11T00:02:29.801Z,79.07
2023-02-11T00:03:01.658Z,65.90
2023-02-11T00:03:33.490Z,64.20
2023-02-11T00:04:06.977Z,63.93
2023-02-11T00:04:38.716Z,64.07
2023-02-11T00:05:10.920Z,62.93
2023-02-11T00:05:42.703Z,59.63
2023-02-11T00:06:14.804Z,55.10
2023-02-11T00:06:46.562Z,52.47
2023-02-11T00:07:18.324Z,50.93
2023-02-11T00:07:50.094Z,52.63
2023-02-11T00:08:21.839Z,52.70
2023-02-11T00:08:54.594Z,54.93
2023-02-11T00:09:26.378Z,58.90
2023-02-11T00:09:58.159Z,60.73
2023-02-11T00:10:29.871Z,60.03
2023-02-11T00:11:01.768Z,52.80
2023-02-11T00:11:34.538Z,50.73
2023-02-11T00:12:06.511Z,49.03
2023-02-11T00:12:38.703Z,48.67
2023-02-11T00:13:10.449Z,49.67
2023-02-11T00:13:43.724Z,52.47
2023-02-11T00:14:15.658Z,52.00
2023-02-11T00:14:47.688Z,53.63
2023-02-11T00:15:21.273Z,53.83
2023-02-11T00:15:54.221Z,51.57
2023-02-11T00:16:26.624Z,48.17
2023-02-11T00:16:58.587Z,51.17
2023-02-11T00:17:30.470Z,50.63
2023-02-11T00:18:02.264Z,53.60
2023-02-11T00:18:34.090Z,52.93
2023-02-11T00:19:06.764Z,52.57
2023-02-11T00:19:38.522Z,49.97
2023-02-11T00:20:10.559Z,47.30
2023-02-11T00:20:43.225Z,47.13
2023-02-11T00:21:17.938Z,48.57
2023-02-11T00:21:49.676Z,48.33
2023-02-11T00:22:21.557Z,49.70
2023-02-11T00:22:53.351Z,49.97
2023-02-11T00:23:25.271Z,49.70
2023-02-11T00:23:59.836Z,46.97
2023-02-11T00:24:31.682Z,49.73
2023-02-11T00:25:03.857Z,49.27
2023-02-11T00:25:41.066Z,49.90
2023-02-11T00:26:22.181Z,51.47
2023-02-11T00:26:53.920Z,48.40
2023-02-11T00:27:25.709Z,49.87
2023-02-11T00:27:57.645Z,49.80
2023-02-11T00:28:29.792Z,49.00
2023-02-11T00:29:02.619Z,48.13
2023-02-11T00:29:34.369Z,49.97
2023-02-11T00:30:06.633Z,49.40
2023-02-11T00:30:38.641Z,48.73
2023-02-11T00:31:11.119Z,47.57
2023-02-11T00:31:43.073Z,48.43
2023-02-11T00:32:14.957Z,49.40
2023-02-11T00:32:47.044Z,49.90
2023-02-11T00:33:18.891Z,50.27
2023-02-11T00:33:51.622Z,49.40
2023-02-11T00:34:23.852Z,50.17
2023-02-11T00:34:55.734Z,50.33
2023-02-11T00:35:27.880Z,51.20
2023-02-11T00:36:04.561Z,50.93
2023-02-11T00:36:36.322Z,51.60
2023-02-11T00:37:08.102Z,52.40
2023-02-11T00:37:39.976Z,52.00
2023-02-11T00:38:11.804Z,52.87
2023-02-11T00:38:44.944Z,55.70
2023-02-11T00:39:16.714Z,54.07
2023-02-11T00:39:50.208Z,51.47
2023-02-11T00:40:22.678Z,49.57
2023-02-11T00:40:54.476Z,50.73
2023-02-11T00:41:27.057Z,46.67
2023-02-11T00:41:59.244Z,46.33
2023-02-11T00:42:31.086Z,47.10
2023-02-11T00:43:02.852Z,46.40
2023-02-11T00:43:35.821Z,48.40
2023-02-11T00:44:07.660Z,49.03
2023-02-11T00:44:39.501Z,49.47
2023-02-11T00:45:12.526Z,55.60
2023-02-11T00:45:44.309Z,55.73
2023-02-11T00:46:16.312Z,50.23
2023-02-11T00:46:48.233Z,48.63
2023-02-11T00:47:19.954Z,49.97
2023-02-11T00:47:51.742Z,53.43
2023-02-11T00:48:23.515Z,56.77
2023-02-11T00:48:57.883Z,59.23
2023-02-11T00:49:29.763Z,58.67
2023-02-11T00:50:02.347Z,59.57
2023-02-11T00:50:34.116Z,67.07
2023-02-11T00:51:06.847Z,74.63
2023-02-11T00:51:38.688Z,78.90
2023-02-11T00:52:10.537Z,79.23
2023-02-11T00:52:42.560Z,76.50
2023-02-11T00:53:14.357Z,82.23
2023-02-11T00:53:46.183Z,86.97
2023-02-11T00:54:17.958Z,93.70
2023-02-11T00:54:49.808Z,92.83
2023-02-11T00:55:21.618Z,90.67
2023-02-11T00:55:53.562Z,94.37
2023-02-11T00:56:25.490Z,96.77
2023-02-11T00:56:57.219Z,101.03
2023-02-11T00:57:28.986Z,103.87
2023-02-11T00:58:00.710Z,104.33
2023-02-11T00:58:32.494Z,102.73
2023-02-11T00:59:04.480Z,100.40
2023-02-11T00:59:36.399Z,99.60
2023-02-11T01:00:10.025Z,102.53
2023-02-11T01:00:41.758Z,102.73
2023-02-11T01:01:14.074Z,102.50
2023-02-11T01:01:45.870Z,102.93
2023-02-11T01:02:18.103Z,104.63
2023-02-11T01:02:49.898Z,103.93
2023-02-11T01:03:21.732Z,103.83
2023-02-11T01:03:53.555Z,107.63
2023-02-11T01:04:25.443Z,107.33
2023-02-11T01:04:58.596Z,106.63
2023-02-11T01:05:30.511Z,99.10
2023-02-11T01:06:02.383Z,83.40
2023-02-11T01:06:34.204Z,83.30
2023-02-11T01:07:06.198Z,92.17
2023-02-11T01:07:37.984Z,96.73
2023-02-11T01:08:09.835Z,100.70
2023-02-11T01:08:41.818Z,96.43
2023-02-11T01:09:13.573Z,89.00
2023-02-11T01:09:45.402Z,87.93
2023-02-11T01:10:17.407Z,91.00
2023-02-11T01:11:17.180Z,94.50
2023-02-11T01:11:48.945Z,93.77
2023-02-11T01:12:20.906Z,96.33
2023-02-11T01:12:52.750Z,86.67
2023-02-11T01:13:26.146Z,95.77
2023-02-11T01:13:57.877Z,98.90
2023-02-11T01:14:29.672Z,97.27
2023-02-11T01:15:01.469Z,99.50
2023-02-11T01:15:33.582Z,103.33
2023-02-11T01:16:10.237Z,102.43
2023-02-11T01:16:42.091Z,108.77
2023-02-11T01:17:13.885Z,107.97
2023-02-11T01:17:45.878Z,110.73
2023-02-11T01:18:17.843Z,111.20
2023-02-11T01:18:49.599Z,111.77
2023-02-11T01:19:21.415Z,114.23
2023-02-11T01:19:53.215Z,109.20
2023-02-11T01:20:28.570Z,111.47
2023-02-11T01:21:00.416Z,116.93
2023-02-11T01:21:32.371Z,119.63
2023-02-11T01:22:05.036Z,118.40
2023-02-11T01:22:39.645Z,119.37
2023-02-11T01:23:11.814Z,117.87
2023-02-11T01:23:43.653Z,118.70
2023-02-11T01:24:15.410Z,120.40
2023-02-11T01:24:47.497Z,117.97
2023-02-11T01:25:19.472Z,118.53
2023-02-11T01:25:51.545Z,118.43
2023-02-11T01:26:23.492Z,112.37
2023-02-11T01:26:55.443Z,114.63
2023-02-11T01:27:27.200Z,117.00
2023-02-11T01:27:59.037Z,115.00
2023-02-11T01:28:31.727Z,117.67
2023-02-11T01:29:03.875Z,117.13
2023-02-11T01:29:35.567Z,115.60
2023-02-11T01:30:09.682Z,115.93
2023-02-11T01:30:41.456Z,114.70
2023-02-11T01:31:14.249Z,113.87
2023-02-11T01:31:46.120Z,113.73
2023-02-11T01:32:18.010Z,113.17
2023-02-11T01:32:49.821Z,110.27
2023-02-11T01:33:22.669Z,109.37
2023-02-11T01:33:54.450Z,110.80
2023-02-11T01:34:26.217Z,111.07
2023-02-11T01:34:58.015Z,111.23
2023-02-11T01:35:29.877Z,110.53
2023-02-11T01:36:03.599Z,110.80
2023-02-11T01:36:35.321Z,112.17
2023-02-11T01:37:07.309Z,111.50
2023-02-11T01:37:39.185Z,110.87
2023-02-11T01:38:26.211Z,109.47
2023-02-11T01:38:57.990Z,106.77
2023-02-11T01:39:34.106Z,107.03
2023-02-11T01:40:08.568Z,110.67
2023-02-11T01:40:40.367Z,111.43
2023-02-11T01:41:14.909Z,112.50
2023-02-11T01:41:46.691Z,111.23
2023-02-11T01:42:20.892Z,109.70
2023-02-11T01:42:52.715Z,108.03
2023-02-11T01:43:26.446Z,108.33
2023-02-11T01:43:58.262Z,113.00
2023-02-11T01:44:37.011Z,109.67
2023-02-11T01:45:46.312Z,108.80
2023-02-11T01:46:24.009Z,111.93
2023-02-11T01:46:55.959Z,111.73
2023-02-11T01:47:27.715Z,110.73
2023-02-11T01:48:02.522Z,112.70
2023-02-11T01:48:39.001Z,112.53
2023-02-11T01:49:21.841Z,112.53
2023-02-11T01:49:59.193Z,111.20
2023-02-11T01:50:31.830Z,114.97
2023-02-11T01:51:49.581Z,115.33
2023-02-11T01:52:31.214Z,115.83
2023-02-11T01:53:22.987Z,114.10
2023-02-11T01:54:15.718Z,121.90
2023-02-11T01:55:10.558Z,126.60
2023-02-11T01:56:01.164Z,124.97
2023-02-11T01:56:55.879Z,124.30
2023-02-11T01:57:31.473Z,124.80
2023-02-11T01:58:05.388Z,123.70
2023-02-11T01:58:42.038Z,120.83
2023-02-11T01:59:22.752Z,119.70
2023-02-11T02:00:10.303Z,114.13
2023-02-11T02:00:43.144Z,113.93
2023-02-11T02:01:23.391Z,115.60
2023-02-11T02:02:00.946Z,117.73
2023-02-11T02:03:08.115Z,113.83
2023-02-11T02:03:45.482Z,111.97
2023-02-11T02:04:19.849Z,115.20
2023-02-11T02:04:58.826Z,114.17
2023-02-11T02:05:37.265Z,112.57
2023-02-11T02:06:45.954Z,115.70
2023-02-11T02:07:31.459Z,117.33
2023-02-11T02:08:09.188Z,117.20
2023-02-11T02:09:01.102Z,117.63
2023-02-11T02:09:40.514Z,118.37
2023-02-11T02:10:19.612Z,116.33
2023-02-11T02:10:56.630Z,114.93
2023-02-11T02:11:28.390Z,115.77
2023-02-11T02:12:00.449Z,114.93
2023-02-11T02:12:32.283Z,117.67
2023-02-11T02:13:04.228Z,116.97
2023-02-11T02:13:36.496Z,117.80
2023-02-11T02:14:08.248Z,117.07
2023-02-11T02:14:41.824Z,118.00
2023-02-11T02:15:29.575Z,117.13
2023-02-11T02:16:04.770Z,119.13
2023-02-11T02:16:38.037Z,118.20
2023-02-11T02:17:27.719Z,115.40
2023-02-11T02:18:07.276Z,108.10
2023-02-11T02:19:00.609Z,107.90
2023-02-11T02:20:02.669Z,112.20
2023-02-11T02:21:09.011Z,110.37
2023-02-11T02:22:14.300Z,109.57
2023-02-11T02:23:17.243Z,117.70
2023-02-11T02:24:22.255Z,112.77
2023-02-11T02:25:01.194Z,115.00
2023-02-11T02:25:51.214Z,117.00
2023-02-11T02:27:04.126Z,115.57
2023-02-11T02:28:03.039Z,114.13
2023-02-11T02:29:14.673Z,115.40
2023-02-11T02:30:03.772Z,105.47
2023-02-11T02:31:09.064Z,103.63
2023-02-11T02:31:50.081Z,107.67
2023-02-11T02:32:43.688Z,108.33
2023-02-11T02:33:34.787Z,112.23
2023-02-11T02:34:48.678Z,111.83
2023-02-11T02:35:52.628Z,98.37
2023-02-11T02:36:34.492Z,99.80
2023-02-11T02:37:31.671Z,107.00
2023-02-11T02:38:14.505Z,113.90
2023-02-11T02:38:57.901Z,112.73
2023-02-11T02:39:34.655Z,114.33
2023-02-11T02:40:36.944Z,116.13
2023-02-11T02:41:13.131Z,117.07
2023-02-11T02:41:47.306Z,110.83
2023-02-11T02:42:21.489Z,109.77
2023-02-11T02:42:55.127Z,109.20
2023-02-11T02:43:27.947Z,108.43
2023-02-11T02:44:00.253Z,108.60
2023-02-11T02:44:32.502Z,109.80
2023-02-11T02:45:04.920Z,113.67
2023-02-11T02:45:36.827Z,115.30
2023-02-11T02:46:27.221Z,116.67
2023-02-11T02:46:59.111Z,114.40
2023-02-11T02:47:30.893Z,114.47
2023-02-11T02:48:02.626Z,114.00
2023-02-11T02:48:38.099Z,117.33
2023-02-11T02:49:15.031Z,115.53
2023-02-11T02:49:46.795Z,112.93
2023-02-11T02:50:30.295Z,111.07
2023-02-11T02:51:32.230Z,114.27
2023-02-11T02:52:56.179Z,114.20
2023-02-11T02:53:38.848Z,106.00
2023-02-11T02:54:22.412Z,107.43
2023-02-11T02:55:28.234Z,110.77
2023-02-11T02:56:32.772Z,104.13
2023-02-11T02:57:32.799Z,103.90
2023-02-11T02:58:07.483Z,100.27
2023-02-11T02:58:48.009Z,100.07
2023-02-11T02:59:25.452Z,102.53
2023-02-11T03:00:21.922Z,104.57
2023-02-11T03:01:20.915Z,106.17
2023-02-11T03:02:24.915Z,103.47
2023-02-11T03:03:15.813Z,100.83
2023-02-11T03:04:06.586Z,103.43
2023-02-11T03:04:53.006Z,104.10
2023-02-11T03:05:57.295Z,102.70
2023-02-11T03:06:44.738Z,102.97
2023-02-11T03:08:05.776Z,103.10
2023-02-11T03:08:57.138Z,103.10
2023-02-11T03:09:39.198Z,104.03
2023-02-11T03:10:41.270Z,105.60
2023-02-11T03:11:18.676Z,103.23
2023-02-11T03:11:50.560Z,101.33
2023-02-11T03:12:24.913Z,102.23
2023-02-11T03:12:57.788Z,103.07
2023-02-11T03:13:34.085Z,105.53
2023-02-11T03:14:10.773Z,106.37
2023-02-11T03:14:42.751Z,106.83
2023-02-11T03:15:17.697Z,106.77
2023-02-11T03:15:54.120Z,109.17
2023-02-11T03:16:28.513Z,103.43
2023-02-11T03:17:05.240Z,104.33
2023-02-11T03:17:42.852Z,105.63
2023-02-11T03:18:19.263Z,107.00
2023-02-11T03:19:10.559Z,104.80
2023-02-11T03:19:46.368Z,105.30
2023-02-11T03:20:22.492Z,106.40
2023-02-11T03:20:56.328Z,106.13
2023-02-11T03:21:32.645Z,108.40
2023-02-11T03:22:11.981Z,107.27
2023-02-11T03:22:52.752Z,103.80
2023-02-11T03:23:39.014Z,104.70
2023-02-11T03:24:30.698Z,102.23
2023-02-11T03:25:03.381Z,99.17
2023-02-11T03:25:42.146Z,95.90
2023-02-11T03:26:25.516Z,99.27
2023-02-11T03:27:03.790Z,102.77
2023-02-11T03:27:41.626Z,103.43
2023-02-11T03:28:39.197Z,105.70
2023-02-11T03:29:33.126Z,100.07
2023-02-11T03:30:09.952Z,100.13
2023-02-11T03:31:01.240Z,102.87
2023-02-11T03:32:06.007Z,102.43
2023-02-11T03:32:52.555Z,87.63
2023-02-11T03:33:35.813Z,82.43
2023-02-11T03:34:10.027Z,93.57
2023-02-11T03:34:44.769Z,82.63
2023-02-11T03:35:32.770Z,81.37
2023-02-11T03:36:15.540Z,91.67
2023-02-11T03:36:58.974Z,85.70
2023-02-11T03:37:39.916Z,79.77
2023-02-11T03:38:39.410Z,88.63
2023-02-11T03:39:16.094Z,93.53
2023-02-11T03:40:03.597Z,81.47
2023-02-11T03:40:41.578Z,79.27
2023-02-11T03:41:17.800Z,94.13
2023-02-11T03:41:52.790Z,89.97
2023-02-11T03:42:30.906Z,84.60
2023-02-11T03:43:20.195Z,83.07
2023-02-11T03:43:58.324Z,87.60
2023-02-11T03:44:37.027Z,79.77
2023-02-11T03:45:14.014Z,87.73
2023-02-11T03:45:51.189Z,89.60
2023-02-11T03:46:31.052Z,95.50
2023-02-11T03:47:08.074Z,97.43
2023-02-11T03:47:46.423Z,97.27
2023-02-11T03:48:31.215Z,94.97
2023-02-11T03:49:11.655Z,90.50
2023-02-11T03:49:49.306Z,92.60
2023-02-11T03:50:23.396Z,94.53
2023-02-11T03:50:58.769Z,96.33
2023-02-11T03:51:33.022Z,96.00
2023-02-11T03:52:07.903Z,96.77
2023-02-11T03:52:39.948Z,94.67
2023-02-11T03:53:14.609Z,94.13
2023-02-11T03:53:47.756Z,88.07
2023-02-11T03:54:29.307Z,86.57
2023-02-11T03:55:06.079Z,81.63
2023-02-11T03:55:40.486Z,75.27
2023-02-11T03:56:21.653Z,86.73
2023-02-11T03:56:56.970Z,87.27
2023-02-11T03:57:28.886Z,80.23
2023-02-11T03:58:01.119Z,94.47
2023-02-11T03:58:32.856Z,96.23
2023-02-11T03:59:04.700Z,85.10
2023-02-11T03:59:56.086Z,79.47
2023-02-11T04:00:37.194Z,74.17
2023-02-11T04:01:10.004Z,72.70
2023-02-11T04:01:42.042Z,67.63
2023-02-11T04:02:13.778Z,76.70
2023-02-11T04:02:45.838Z,86.90
2023-02-11T04:03:17.812Z,92.33
2023-02-11T04:03:49.684Z,96.17
2023-02-11T04:04:21.507Z,97.33
2023-02-11T04:04:53.630Z,91.97
2023-02-11T04:05:25.774Z,78.80
2023-02-11T04:05:57.567Z,70.63
2023-02-11T04:06:29.343Z,84.03
2023-02-11T04:07:01.058Z,92.30
2023-02-11T04:07:33.263Z,93.13
2023-02-11T04:08:05.577Z,88.87
2023-02-11T04:08:37.404Z,87.20
2023-02-11T04:09:10.289Z,90.23
2023-02-11T04:09:42.379Z,90.43
2023-02-11T04:10:14.408Z,91.80
2023-02-11T04:10:46.348Z,92.60
2023-02-11T04:11:18.182Z,94.13
2023-02-11T04:11:49.943Z,96.93
2023-02-11T04:12:22.224Z,93.53
2023-02-11T04:12:54.032Z,92.17
2023-02-11T04:13:27.259Z,94.90
2023-02-11T04:13:58.996Z,93.50
2023-02-11T04:14:30.736Z,93.23
2023-02-11T04:15:02.478Z,92.67
2023-02-11T04:15:34.430Z,93.63
2023-02-11T04:16:06.320Z,93.97
2023-02-11T04:16:38.149Z,94.57
2023-02-11T04:17:11.064Z,95.80
2023-02-11T04:17:43.176Z,94.77
2023-02-11T04:18:15.116Z,92.87
2023-02-11T04:18:46.893Z,88.37
2023-02-11T04:19:18.847Z,75.77
2023-02-11T04:19:50.638Z,74.80
2023-02-11T04:20:22.421Z,78.40
2023-02-11T04:20:54.149Z,81.10
2023-02-11T04:21:25.954Z,90.10
2023-02-11T04:21:57.923Z,90.47
2023-02-11T04:22:30.370Z,87.03
2023-02-11T04:23:02.158Z,77.43
2023-02-11T04:23:33.970Z,66.27
2023-02-11T04:24:05.904Z,76.67
2023-02-11T04:24:37.774Z,91.50
2023-02-11T04:25:10.083Z,93.37
2023-02-11T04:25:42.978Z,90.30
2023-02-11T04:26:14.887Z,94.10
2023-02-11T04:26:46.747Z,92.53
2023-02-11T04:27:18.564Z,87.87
2023-02-11T04:27:50.349Z,85.10
2023-02-11T04:28:22.266Z,80.40
2023-02-11T04:28:54.052Z,84.53
2023-02-11T04:29:25.795Z,82.80
2023-02-11T04:29:57.558Z,74.23
2023-02-11T04:30:29.304Z,69.53
2023-02-11T04:31:01.120Z,64.90
2023-02-11T04:31:33.062Z,73.17
2023-02-11T04:32:05.153Z,68.13
2023-02-11T04:32:37.019Z,63.00
2023-02-11T04:33:08.790Z,65.57
2023-02-11T04:33:40.604Z,70.03
2023-02-11T04:34:12.562Z,69.03
2023-02-11T04:34:44.670Z,66.13
2023-02-11T04:35:16.597Z,66.00
2023-02-11T04:35:48.812Z,62.90
2023-02-11T04:36:20.876Z,62.37
2023-02-11T04:36:52.654Z,70.67
2023-02-11T04:37:24.493Z,76.13
2023-02-11T04:37:56.328Z,72.70
2023-02-11T04:38:28.212Z,62.87
2023-02-11T04:39:00.044Z,59.43
2023-02-11T04:39:31.870Z,63.37
2023-02-11T04:40:04.067Z,65.00
2023-02-11T04:40:35.876Z,66.53
2023-02-11T04:41:07.655Z,70.93
2023-02-11T04:41:39.463Z,71.23
2023-02-11T04:42:11.331Z,69.77
2023-02-11T04:42:43.275Z,70.00
2023-02-11T04:43:15.168Z,69.30
2023-02-11T04:43:46.922Z,67.93
2023-02-11T04:44:18.699Z,69.03
2023-02-11T04:44:50.509Z,69.77
2023-02-11T04:45:22.285Z,71.70
2023-02-11T04:45:58.805Z,74.93
2023-02-11T04:46:30.902Z,76.87
2023-02-11T04:47:02.684Z,78.93
2023-02-11T04:47:34.798Z,78.03
2023-02-11T04:48:06.560Z,79.00
2023-02-11T04:48:38.353Z,79.10
2023-02-11T04:49:14.212Z,80.60
2023-02-11T04:49:46.024Z,81.07
2023-02-11T04:50:17.906Z,83.60
2023-02-11T04:50:49.654Z,83.00
2023-02-11T04:51:21.437Z,80.27
2023-02-11T04:51:53.225Z,82.20
2023-02-11T04:52:25.064Z,85.43
2023-02-11T04:52:57.060Z,85.80
2023-02-11T04:53:28.873Z,84.17
2023-02-11T04:54:00.692Z,80.70
2023-02-11T04:54:32.506Z,80.33
2023-02-11T04:55:04.663Z,80.87
2023-02-11T04:55:36.455Z,78.40
2023-02-11T04:56:08.407Z,81.50
2023-02-11T04:56:40.263Z,82.10
2023-02-11T04:57:12.026Z,81.73
2023-02-11T04:57:43.871Z,80.30
2023-02-11T04:58:15.632Z,80.50
2023-02-11T04:58:47.435Z,79.77
2023-02-11T04:59:19.180Z,80.40
2023-02-11T04:59:51.158Z,84.20
2023-02-11T05:00:23.076Z,86.90
2023-02-11T05:00:54.912Z,95.73
2023-02-11T05:01:26.809Z,98.07
2023-02-11T05:01:58.671Z,92.63
2023-02-11T05:02:30.375Z,91.63
2023-02-11T05:03:02.103Z,90.23
2023-02-11T05:03:34.007Z,89.63
2023-02-11T05:04:05.819Z,94.67
2023-02-11T05:04:37.618Z,94.27
2023-02-11T05:05:09.413Z,90.50
2023-02-11T05:05:42.668Z,89.90
2023-02-11T05:06:14.476Z,92.40
2023-02-11T05:06:46.323Z,92.67
2023-02-11T05:07:18.115Z,91.40
2023-02-11T05:07:49.942Z,90.77
2023-02-11T05:08:21.647Z,89.87
2023-02-11T05:08:53.370Z,90.60
2023-02-11T05:09:25.245Z,90.53
2023-02-11T05:09:56.994Z,93.70
2023-02-11T05:10:28.754Z,95.13
2023-02-11T05:11:02.280Z,98.30
2023-02-11T05:11:34.464Z,100.00
2023-02-11T05:12:06.464Z,98.07
2023-02-11T05:12:38.276Z,92.53
2023-02-11T05:13:09.994Z,93.47
2023-02-11T05:13:41.729Z,93.07
2023-02-11T05:14:13.466Z,91.40
2023-02-11T05:14:45.327Z,90.97
2023-02-11T05:15:17.204Z,93.00
2023-02-11T05:15:49.403Z,91.23
2023-02-11T05:16:21.618Z,91.00
2023-02-11T05:16:53.503Z,92.37
2023-02-11T05:17:25.274Z,95.37
2023-02-11T05:17:57.023Z,92.67
2023-02-11T05:18:28.734Z,90.13
2023-02-11T05:19:00.503Z,89.03
2023-02-11T05:19:32.458Z,91.03
2023-02-11T05:20:04.502Z,91.13
2023-02-11T05:20:38.948Z,89.43
2023-02-11T05:21:14.213Z,90.27
2023-02-11T05:22:01.365Z,93.97
2023-02-11T05:22:33.456Z,96.67
2023-02-11T05:23:05.217Z,90.60
2023-02-11T05:23:37.590Z,91.93
2023-02-11T05:24:09.447Z,95.80
2023-02-11T05:24:41.286Z,94.00
2023-02-11T05:25:13.272Z,96.03
2023-02-11T05:25:44.998Z,95.23
2023-02-11T05:26:17.568Z,92.77
2023-02-11T05:26:49.474Z,91.30
2023-02-11T05:27:21.400Z,90.97
2023-02-11T05:27:53.146Z,92.40
2023-02-11T05:28:25.087Z,92.60
2023-02-11T05:28:56.964Z,93.50
2023-02-11T05:29:28.862Z,94.00
2023-02-11T05:30:00.625Z,88.13
2023-02-11T05:30:33.103Z,84.13
2023-02-11T05:31:07.867Z,87.90
2023-02-11T05:31:39.667Z,88.60
2023-02-11T05:32:12.258Z,89.57
2023-02-11T05:32:44.030Z,90.83
2023-02-11T05:33:15.832Z,89.73
2023-02-11T05:33:47.659Z,88.13
2023-02-11T05:34:19.663Z,93.10
2023-02-11T05:34:51.429Z,92.23
2023-02-11T05:35:23.319Z,100.63
2023-02-11T05:36:07.792Z,102.03
2023-02-11T05:36:39.574Z,100.67
2023-02-11T05:37:11.488Z,97.07
2023-02-11T05:37:43.633Z,96.10
2023-02-11T05:38:15.424Z,89.00
2023-02-11T05:38:47.247Z,82.83
2023-02-11T05:39:19.097Z,80.70
2023-02-11T05:39:50.822Z,80.07
2023-02-11T05:40:22.598Z,82.37
2023-02-11T05:40:54.544Z,84.33
2023-02-11T05:41:26.389Z,85.70
2023-02-11T05:41:58.143Z,86.77
2023-02-11T05:42:29.874Z,94.33
2023-02-11T05:43:01.719Z,92.70
2023-02-11T05:43:35.445Z,86.83
2023-02-11T05:44:07.265Z,84.07
2023-02-11T05:44:39.188Z,84.07
2023-02-11T05:45:11.036Z,83.33
2023-02-11T05:45:42.809Z,81.90
2023-02-11T05:46:14.549Z,78.20
2023-02-11T05:46:46.493Z,81.83
2023-02-11T05:47:18.351Z,81.17
2023-02-11T05:47:50.149Z,78.90
2023-02-11T05:48:22.086Z,76.80
2023-02-11T05:48:54.140Z,84.70
2023-02-11T05:49:26.060Z,90.70
2023-02-11T05:49:59.010Z,90.50
2023-02-11T05:50:30.755Z,85.53
2023-02-11T05:51:02.522Z,79.40
2023-02-11T05:51:34.288Z,80.07
2023-02-11T05:52:06.168Z,75.77
2023-02-11T05:52:37.967Z,82.87
2023-02-11T05:53:09.994Z,107.27
2023-02-11T05:53:42.006Z,124.07
2023-02-11T05:54:13.832Z,126.13
2023-02-11T05:54:45.624Z,107.93
2023-02-11T05:55:17.496Z,105.63
2023-02-11T05:55:49.486Z,104.23
2023-02-11T05:56:21.575Z,98.87
2023-02-11T05:56:53.878Z,96.27
2023-02-11T05:57:25.704Z,89.03
2023-02-11T05:57:57.771Z,86.43
2023-02-11T05:58:29.594Z,86.77
2023-02-11T05:59:01.525Z,83.73
2023-02-11T05:59:33.377Z,81.07
2023-02-11T06:00:06.330Z,85.20
2023-02-11T06:00:38.302Z,85.30
2023-02-11T06:01:10.115Z,83.40
2023-02-11T06:01:42.384Z,85.50
2023-02-11T06:02:14.269Z,87.63
2023-02-11T06:02:46.099Z,88.00
2023-02-11T06:03:17.890Z,89.27
2023-02-11T06:03:51.557Z,88.60
2023-02-11T06:04:23.422Z,88.90
2023-02-11T06:04:55.315Z,90.00
2023-02-11T06:05:27.161Z,87.10
2023-02-11T06:05:58.953Z,87.23
2023-02-11T06:06:34.386Z,90.40
2023-02-11T06:07:06.254Z,91.50
2023-02-11T06:07:38.223Z,92.07
2023-02-11T06:08:10.075Z,90.93
2023-02-11T06:08:41.832Z,91.33
2023-02-11T06:09:13.560Z,96.27
2023-02-11T06:09:45.862Z,96.10
2023-02-11T06:10:17.963Z,92.50
2023-02-11T06:10:49.765Z,88.77
2023-02-11T06:11:21.539Z,83.27
2023-02-11T06:11:53.283Z,84.27
2023-02-11T06:12:25.224Z,84.40
2023-02-11T06:12:56.981Z,85.90
2023-02-11T06:13:28.697Z,86.20
2023-02-11T06:14:01.600Z,85.80
2023-02-11T06:14:34.292Z,86.20
2023-02-11T06:15:06.739Z,88.07
2023-02-11T06:15:38.542Z,93.40
2023-02-11T06:16:10.750Z,93.37
2023-02-11T06:16:42.557Z,92.80
2023-02-11T06:17:15.661Z,90.40
2023-02-11T06:17:47.576Z,90.97
2023-02-11T06:18:19.484Z,96.23
2023-02-11T06:18:51.350Z,96.50
2023-02-11T06:19:23.070Z,95.47
2023-02-11T06:19:54.804Z,94.40
2023-02-11T06:20:26.701Z,95.40
2023-02-11T06:20:58.457Z,96.53
2023-02-11T06:21:42.929Z,97.67
2023-02-11T06:22:15.575Z,96.93
2023-02-11T06:22:47.344Z,94.77
2023-02-11T06:23:19.177Z,90.13
2023-02-11T06:23:50.949Z,90.10
2023-02-11T06:24:47.707Z,91.20
2023-02-11T06:25:15.244Z,89.90
2023-02-11T06:25:47.175Z,92.37
2023-02-11T06:26:21.892Z,94.63
2023-02-11T06:26:53.694Z,87.23
2023-02-11T06:27:25.456Z,88.73
2023-02-11T06:27:57.540Z,89.27
2023-02-11T06:28:31.403Z,91.23
2023-02-11T06:29:03.755Z,353.63
2023-02-11T06:29:36.565Z,295.00
2023-02-11T06:30:09.167Z,363.37
2023-02-11T06:30:41.343Z,232.53
2023-02-11T06:31:13.411Z,184.80
2023-02-11T06:31:45.293Z,185.70
2023-02-11T06:32:39.431Z,171.53
2023-02-11T06:33:10.030Z,138.73
2023-02-11T06:33:42.424Z,153.63
2023-02-11T06:34:14.285Z,141.27
2023-02-11T06:34:46.566Z,133.03
2023-02-11T06:35:18.510Z,100.97
2023-02-11T06:35:50.438Z,98.57
2023-02-11T06:36:23.358Z,97.47
2023-02-11T06:36:55.219Z,95.30
2023-02-11T06:37:27.148Z,92.23
2023-02-11T06:37:59.473Z,91.10
2023-02-11T06:38:31.557Z,96.73
2023-02-11T06:39:03.879Z,98.27
2023-02-11T06:39:35.782Z,90.50
2023-02-11T06:40:07.881Z,86.67
2023-02-11T06:40:39.762Z,98.67
2023-02-11T06:41:13.319Z,107.17
2023-02-11T06:41:45.175Z,98.87
2023-02-11T06:42:17.447Z,92.17
2023-02-11T06:42:50.142Z,90.53
2023-02-11T06:43:22.330Z,95.47
2023-02-11T06:43:54.935Z,99.70
2023-02-11T06:44:29.088Z,100.40
2023-02-11T06:45:02.804Z,99.93
2023-02-11T06:45:34.639Z,98.53
2023-02-11T06:46:07.078Z,102.80
2023-02-11T06:46:39.302Z,101.27
2023-02-11T06:47:11.406Z,96.50
2023-02-11T06:47:43.270Z,97.57
2023-02-11T06:48:15.648Z,97.23
2023-02-11T06:48:47.465Z,98.00
2023-02-11T06:49:19.301Z,99.13
2023-02-11T06:49:51.040Z,100.03
2023-02-11T06:50:22.818Z,103.27
2023-02-11T06:50:54.649Z,101.20
2023-02-11T06:51:26.573Z,99.57
2023-02-11T06:51:58.305Z,99.43
2023-02-11T06:52:30.174Z,97.40
2023-02-11T06:53:02.058Z,99.77
2023-02-11T06:53:39.462Z,95.43
2023-02-11T06:54:13.050Z,94.20
2023-02-11T06:54:44.890Z,89.43
2023-02-11T06:55:16.910Z,88.37
2023-02-11T06:55:48.853Z,89.70
2023-02-11T06:56:23.488Z,88.30
2023-02-11T06:56:55.290Z,88.73
2023-02-11T06:57:26.999Z,92.87
2023-02-11T06:57:58.780Z,95.03
2023-02-11T06:58:30.587Z,92.70
2023-02-11T06:59:03.552Z,93.37
2023-02-11T06:59:35.306Z,100.23
2023-02-11T07:00:07.878Z,106.67
2023-02-11T07:00:39.718Z,109.17
2023-02-11T07:01:15.153Z,105.77
2023-02-11T07:01:47.893Z,106.23
2023-02-11T07:02:21.035Z,108.57
2023-02-11T07:02:53.102Z,107.57
2023-02-11T07:03:25.440Z,104.43
2023-02-11T07:03:57.401Z,105.90
2023-02-11T07:04:29.325Z,106.43
2023-02-11T07:05:01.634Z,106.67
2023-02-11T07:05:34.468Z,106.03
2023-02-11T07:06:08.319Z,101.77
2023-02-11T07:06:40.771Z,97.43
2023-02-11T07:07:12.566Z,95.53
2023-02-11T07:07:44.357Z,92.03
2023-02-11T07:08:16.249Z,91.87
2023-02-11T07:08:48.722Z,92.37
2023-02-11T07:09:20.819Z,93.40
2023-02-11T07:09:52.582Z,93.10
2023-02-11T07:10:24.356Z,98.43
2023-02-11T07:10:56.349Z,99.37
2023-02-11T07:11:30.185Z,101.17
2023-02-11T07:12:02.238Z,101.30
2023-02-11T07:12:34.104Z,101.10
2023-02-11T07:13:06.050Z,98.17
2023-02-11T07:13:38.008Z,96.80
2023-02-11T07:14:10.788Z,94.67
2023-02-11T07:14:42.788Z,93.97
2023-02-11T07:15:14.585Z,96.83
2023-02-11T07:15:46.497Z,92.63
2023-02-11T07:16:19.822Z,94.83
2023-02-11T07:16:51.843Z,98.60
2023-02-11T07:17:23.663Z,103.17
2023-02-11T07:17:55.443Z,105.80
2023-02-11T07:18:27.271Z,103.93
2023-02-11T07:18:59.151Z,101.23
2023-02-11T07:19:31.053Z,98.47
2023-02-11T07:20:03.636Z,99.87
2023-02-11T07:20:36.735Z,98.93
2023-02-11T07:21:11.814Z,100.80
2023-02-11T07:21:43.606Z,105.03
2023-02-11T07:22:15.462Z,106.07
2023-02-11T07:22:47.179Z,108.80
2023-02-11T07:23:18.938Z,110.60
2023-02-11T07:23:51.811Z,110.63
2023-02-11T07:24:23.554Z,110.17
2023-02-11T07:24:55.285Z,110.13
2023-02-11T07:25:27.190Z,108.07
2023-02-11T07:25:58.993Z,107.37
2023-02-11T07:26:31.283Z,108.60
2023-02-11T07:27:03.101Z,105.33
2023-02-11T07:27:35.125Z,117.50